sensor_id;sensor_type;location;lat;lon;timestamp;P1;durP1;ratioP1;P2;durP2;ratioP2
50495;SDS011;38806;51.554;5.704;2022-09-30T00:01:55;25.70;;;15.90;;
50495;SDS011;38806;51.554;5.704;2022-09-30T00:03:56;25.67;;;16.25;;
50495;SDS011;38806;51.554;5.704;2022-09-30T00:05:57;26.40;;;16.50;;
50495;SDS011;38806;51.554;5.704;2022-09-30T00:07:59;24.95;;;16.67;;
50495;SDS011;38806;51.554;5.704;2022-09-30T00:09:59;22.08;;;17.08;;
50495;SDS011;38806;51.554;5.704;2022-09-30T00:11:59;27.67;;;16.95;;
50495;SDS011;38806;51.554;5.704;2022-09-30T00:14:00;25.25;;;16.30;;
50495;SDS011;38806;51.554;5.704;2022-09-30T00:16:01;26.85;;;16.52;;
50495;SDS011;38806;51.554;5.704;2022-09-30T00:18:03;25.02;;;16.83;;
50495;SDS011;38806;51.554;5.704;2022-09-30T00:20:03;24.85;;;16.25;;
50495;SDS011;38806;51.554;5.704;2022-09-30T00:22:03;25.55;;;16.50;;
50495;SDS011;38806;51.554;5.704;2022-09-30T00:24:04;24.17;;;16.77;;
50495;SDS011;38806;51.554;5.704;2022-09-30T00:26:06;24.65;;;16.73;;
50495;SDS011;38806;51.554;5.704;2022-09-30T00:28:11;20.25;;;14.38;;
50495;SDS011;38806;51.554;5.704;2022-09-30T00:30:11;26.50;;;17.42;;
50495;SDS011;38806;51.554;5.704;2022-09-30T00:32:11;22.80;;;15.75;;
50495;SDS011;38806;51.554;5.704;2022-09-30T00:34:11;23.88;;;16.23;;
50495;SDS011;38806;51.554;5.704;2022-09-30T00:36:12;25.70;;;17.02;;
50495;SDS011;38806;51.554;5.704;2022-09-30T00:38:12;28.35;;;16.80;;
50495;SDS011;38806;51.554;5.704;2022-09-30T00:40:12;25.75;;;17.45;;
50495;SDS011;38806;51.554;5.704;2022-09-30T00:42:13;22.33;;;15.00;;
50495;SDS011;38806;51.554;5.704;2022-09-30T00:46:43;30.23;;;20.02;;
50495;SDS011;38806;51.554;5.704;2022-09-30T00:48:43;39.10;;;25.60;;
50495;SDS011;38806;51.554;5.704;2022-09-30T00:50:46;33.90;;;22.30;;
50495;SDS011;38806;51.554;5.704;2022-09-30T00:52:54;30.83;;;19.88;;
50495;SDS011;38806;51.554;5.704;2022-09-30T00:54:58;30.15;;;18.33;;
50495;SDS011;38806;51.554;5.704;2022-09-30T00:57:01;28.27;;;18.73;;
50495;SDS011;38806;51.554;5.704;2022-09-30T00:59:07;28.13;;;17.95;;
50495;SDS011;38806;51.554;5.704;2022-09-30T01:01:11;24.88;;;17.45;;
50495;SDS011;38806;51.554;5.704;2022-09-30T01:03:11;24.13;;;17.38;;
50495;SDS011;38806;51.554;5.704;2022-09-30T01:05:12;25.65;;;17.63;;
50495;SDS011;38806;51.554;5.704;2022-09-30T01:07:12;24.65;;;15.75;;
50495;SDS011;38806;51.554;5.704;2022-09-30T01:09:14;31.02;;;17.30;;
50495;SDS011;38806;51.554;5.704;2022-09-30T01:11:14;25.65;;;17.10;;
50495;SDS011;38806;51.554;5.704;2022-09-30T01:13:15;27.92;;;19.17;;
50495;SDS011;38806;51.554;5.704;2022-09-30T01:15:18;24.27;;;16.60;;
50495;SDS011;38806;51.554;5.704;2022-09-30T01:17:40;26.08;;;17.67;;
50495;SDS011;38806;51.554;5.704;2022-09-30T01:27:11;25.60;;;15.30;;
50495;SDS011;38806;51.554;5.704;2022-09-30T01:36:22;26.40;;;16.88;;
50495;SDS011;38806;51.554;5.704;2022-09-30T01:40:53;25.67;;;14.73;;
50495;SDS011;38806;51.554;5.704;2022-09-30T01:43:07;22.50;;;16.05;;
50495;SDS011;38806;51.554;5.704;2022-09-30T01:49:49;17.48;;;12.77;;
50495;SDS011;38806;51.554;5.704;2022-09-30T01:51:57;18.42;;;12.88;;
50495;SDS011;38806;51.554;5.704;2022-09-30T01:54:12;20.30;;;14.18;;
50495;SDS011;38806;51.554;5.704;2022-09-30T01:58:40;20.02;;;14.48;;
50495;SDS011;38806;51.554;5.704;2022-09-30T02:00:46;20.67;;;14.90;;
50495;SDS011;38806;51.554;5.704;2022-09-30T02:04:59;22.52;;;14.57;;
50495;SDS011;38806;51.554;5.704;2022-09-30T02:07:03;20.70;;;13.20;;
50495;SDS011;38806;51.554;5.704;2022-09-30T02:09:11;24.42;;;15.02;;
50495;SDS011;38806;51.554;5.704;2022-09-30T02:11:28;22.83;;;15.93;;
50495;SDS011;38806;51.554;5.704;2022-09-30T02:13:37;20.13;;;13.13;;
50495;SDS011;38806;51.554;5.704;2022-09-30T02:15:47;21.27;;;13.90;;
50495;SDS011;38806;51.554;5.704;2022-09-30T02:17:57;20.90;;;13.65;;
50495;SDS011;38806;51.554;5.704;2022-09-30T02:20:04;26.20;;;13.48;;
50495;SDS011;38806;51.554;5.704;2022-09-30T02:22:13;21.98;;;13.55;;
50495;SDS011;38806;51.554;5.704;2022-09-30T02:24:17;19.92;;;13.13;;
50495;SDS011;38806;51.554;5.704;2022-09-30T02:26:22;20.33;;;14.30;;
50495;SDS011;38806;51.554;5.704;2022-09-30T02:28:26;21.50;;;13.38;;
50495;SDS011;38806;51.554;5.704;2022-09-30T02:30:29;20.35;;;12.10;;
50495;SDS011;38806;51.554;5.704;2022-09-30T02:32:43;23.15;;;12.48;;
50495;SDS011;38806;51.554;5.704;2022-09-30T02:34:48;14.95;;;10.93;;
50495;SDS011;38806;51.554;5.704;2022-09-30T02:37:12;17.60;;;11.75;;
50495;SDS011;38806;51.554;5.704;2022-09-30T02:39:24;17.70;;;12.43;;
50495;SDS011;38806;51.554;5.704;2022-09-30T02:41:27;24.20;;;15.25;;
50495;SDS011;38806;51.554;5.704;2022-09-30T02:43:32;23.05;;;15.40;;
50495;SDS011;38806;51.554;5.704;2022-09-30T02:45:45;24.25;;;14.90;;
50495;SDS011;38806;51.554;5.704;2022-09-30T02:54:38;20.33;;;14.23;;
50495;SDS011;38806;51.554;5.704;2022-09-30T02:56:50;20.05;;;14.07;;
50495;SDS011;38806;51.554;5.704;2022-09-30T02:58:57;28.08;;;14.77;;
50495;SDS011;38806;51.554;5.704;2022-09-30T03:00:57;21.60;;;14.07;;
50495;SDS011;38806;51.554;5.704;2022-09-30T03:03:04;28.35;;;15.32;;
50495;SDS011;38806;51.554;5.704;2022-09-30T03:05:11;21.52;;;14.98;;
50495;SDS011;38806;51.554;5.704;2022-09-30T03:07:11;21.15;;;14.00;;
50495;SDS011;38806;51.554;5.704;2022-09-30T03:09:12;21.35;;;12.27;;
50495;SDS011;38806;51.554;5.704;2022-09-30T03:11:14;18.05;;;12.88;;
50495;SDS011;38806;51.554;5.704;2022-09-30T03:13:20;20.80;;;14.02;;
50495;SDS011;38806;51.554;5.704;2022-09-30T03:20:45;29.27;;;18.50;;
50495;SDS011;38806;51.554;5.704;2022-09-30T03:25:35;29.33;;;16.17;;
50495;SDS011;38806;51.554;5.704;2022-09-30T03:27:55;23.27;;;16.40;;
50495;SDS011;38806;51.554;5.704;2022-09-30T03:30:10;29.10;;;18.63;;
50495;SDS011;38806;51.554;5.704;2022-09-30T03:32:23;26.13;;;17.88;;
50495;SDS011;38806;51.554;5.704;2022-09-30T03:34:40;27.60;;;19.10;;
50495;SDS011;38806;51.554;5.704;2022-09-30T03:37:01;22.50;;;15.55;;
50495;SDS011;38806;51.554;5.704;2022-09-30T03:39:23;22.02;;;15.60;;
50495;SDS011;38806;51.554;5.704;2022-09-30T03:41:43;30.77;;;18.92;;
50495;SDS011;38806;51.554;5.704;2022-09-30T03:44:15;23.83;;;17.17;;
50495;SDS011;38806;51.554;5.704;2022-09-30T03:48:26;24.88;;;15.98;;
50495;SDS011;38806;51.554;5.704;2022-09-30T03:50:28;25.42;;;17.33;;
50495;SDS011;38806;51.554;5.704;2022-09-30T03:52:31;28.88;;;18.00;;
50495;SDS011;38806;51.554;5.704;2022-09-30T03:54:32;26.98;;;18.05;;
50495;SDS011;38806;51.554;5.704;2022-09-30T03:56:33;31.52;;;19.52;;
50495;SDS011;38806;51.554;5.704;2022-09-30T03:58:34;30.52;;;17.05;;
50495;SDS011;38806;51.554;5.704;2022-09-30T04:00:44;28.50;;;16.67;;
50495;SDS011;38806;51.554;5.704;2022-09-30T04:02:50;26.90;;;18.65;;
50495;SDS011;38806;51.554;5.704;2022-09-30T04:04:50;24.75;;;15.85;;
50495;SDS011;38806;51.554;5.704;2022-09-30T04:06:50;23.80;;;16.98;;
50495;SDS011;38806;51.554;5.704;2022-09-30T04:08:50;26.35;;;16.63;;
50495;SDS011;38806;51.554;5.704;2022-09-30T04:10:52;24.10;;;16.38;;
50495;SDS011;38806;51.554;5.704;2022-09-30T04:12:53;23.73;;;16.77;;
50495;SDS011;38806;51.554;5.704;2022-09-30T04:14:53;23.98;;;15.77;;
50495;SDS011;38806;51.554;5.704;2022-09-30T04:16:54;23.15;;;16.73;;
50495;SDS011;38806;51.554;5.704;2022-09-30T04:18:54;22.90;;;16.83;;
50495;SDS011;38806;51.554;5.704;2022-09-30T04:20:58;27.10;;;16.83;;
50495;SDS011;38806;51.554;5.704;2022-09-30T04:22:59;30.60;;;18.33;;
50495;SDS011;38806;51.554;5.704;2022-09-30T04:25:00;34.35;;;20.02;;
50495;SDS011;38806;51.554;5.704;2022-09-30T04:27:00;24.52;;;16.92;;
50495;SDS011;38806;51.554;5.704;2022-09-30T04:29:02;30.45;;;17.98;;
50495;SDS011;38806;51.554;5.704;2022-09-30T04:31:02;24.42;;;17.13;;
50495;SDS011;38806;51.554;5.704;2022-09-30T04:33:04;28.20;;;17.65;;
50495;SDS011;38806;51.554;5.704;2022-09-30T04:35:04;25.50;;;16.65;;
50495;SDS011;38806;51.554;5.704;2022-09-30T04:37:05;20.45;;;16.20;;
50495;SDS011;38806;51.554;5.704;2022-09-30T04:39:05;36.35;;;20.45;;
50495;SDS011;38806;51.554;5.704;2022-09-30T04:41:06;30.80;;;20.38;;
50495;SDS011;38806;51.554;5.704;2022-09-30T04:43:06;29.65;;;20.92;;
50495;SDS011;38806;51.554;5.704;2022-09-30T04:45:08;31.60;;;19.85;;
50495;SDS011;38806;51.554;5.704;2022-09-30T04:47:10;27.38;;;18.52;;
50495;SDS011;38806;51.554;5.704;2022-09-30T04:49:10;26.13;;;18.08;;
50495;SDS011;38806;51.554;5.704;2022-09-30T04:51:11;29.88;;;19.00;;
50495;SDS011;38806;51.554;5.704;2022-09-30T04:53:12;25.77;;;17.35;;
50495;SDS011;38806;51.554;5.704;2022-09-30T04:55:13;26.40;;;16.45;;
50495;SDS011;38806;51.554;5.704;2022-09-30T04:57:14;29.40;;;19.20;;
50495;SDS011;38806;51.554;5.704;2022-09-30T04:59:14;29.92;;;19.63;;
50495;SDS011;38806;51.554;5.704;2022-09-30T05:01:15;29.55;;;19.45;;
50495;SDS011;38806;51.554;5.704;2022-09-30T05:03:16;26.58;;;18.23;;
50495;SDS011;38806;51.554;5.704;2022-09-30T05:05:18;32.38;;;21.17;;
50495;SDS011;38806;51.554;5.704;2022-09-30T05:07:19;26.25;;;18.50;;
50495;SDS011;38806;51.554;5.704;2022-09-30T05:09:19;25.33;;;17.52;;
50495;SDS011;38806;51.554;5.704;2022-09-30T05:11:20;32.08;;;19.52;;
50495;SDS011;38806;51.554;5.704;2022-09-30T05:13:20;27.15;;;17.35;;
50495;SDS011;38806;51.554;5.704;2022-09-30T05:15:21;28.95;;;18.33;;
50495;SDS011;38806;51.554;5.704;2022-09-30T05:17:21;31.60;;;20.95;;
50495;SDS011;38806;51.554;5.704;2022-09-30T05:19:21;35.33;;;20.00;;
50495;SDS011;38806;51.554;5.704;2022-09-30T05:21:22;31.20;;;21.65;;
50495;SDS011;38806;51.554;5.704;2022-09-30T05:23:23;26.75;;;19.20;;
50495;SDS011;38806;51.554;5.704;2022-09-30T05:25:24;30.83;;;18.38;;
50495;SDS011;38806;51.554;5.704;2022-09-30T05:27:24;31.63;;;22.13;;
50495;SDS011;38806;51.554;5.704;2022-09-30T05:29:24;26.48;;;18.35;;
50495;SDS011;38806;51.554;5.704;2022-09-30T05:31:25;27.05;;;17.90;;
50495;SDS011;38806;51.554;5.704;2022-09-30T05:33:26;28.00;;;18.38;;
50495;SDS011;38806;51.554;5.704;2022-09-30T05:35:28;24.13;;;18.65;;
50495;SDS011;38806;51.554;5.704;2022-09-30T05:37:28;29.70;;;21.13;;
50495;SDS011;38806;51.554;5.704;2022-09-30T05:39:29;29.90;;;19.40;;
50495;SDS011;38806;51.554;5.704;2022-09-30T05:41:29;30.65;;;18.80;;
50495;SDS011;38806;51.554;5.704;2022-09-30T05:43:30;29.60;;;17.20;;
50495;SDS011;38806;51.554;5.704;2022-09-30T05:45:31;26.35;;;17.98;;
50495;SDS011;38806;51.554;5.704;2022-09-30T05:47:33;27.23;;;18.70;;
50495;SDS011;38806;51.554;5.704;2022-09-30T05:49:33;22.00;;;15.52;;
50495;SDS011;38806;51.554;5.704;2022-09-30T05:51:33;24.80;;;16.88;;
50495;SDS011;38806;51.554;5.704;2022-09-30T05:53:36;23.25;;;15.95;;
50495;SDS011;38806;51.554;5.704;2022-09-30T05:55:37;24.67;;;17.95;;
50495;SDS011;38806;51.554;5.704;2022-09-30T05:57:37;28.42;;;17.55;;
50495;SDS011;38806;51.554;5.704;2022-09-30T05:59:38;27.48;;;17.98;;
50495;SDS011;38806;51.554;5.704;2022-09-30T06:01:38;25.85;;;18.55;;
50495;SDS011;38806;51.554;5.704;2022-09-30T06:03:39;25.98;;;18.48;;
50495;SDS011;38806;51.554;5.704;2022-09-30T06:05:39;30.38;;;18.98;;
50495;SDS011;38806;51.554;5.704;2022-09-30T06:07:40;28.38;;;18.77;;
50495;SDS011;38806;51.554;5.704;2022-09-30T06:09:40;38.40;;;22.63;;
50495;SDS011;38806;51.554;5.704;2022-09-30T06:11:41;38.78;;;25.15;;
50495;SDS011;38806;51.554;5.704;2022-09-30T06:13:42;33.28;;;23.17;;
50495;SDS011;38806;51.554;5.704;2022-09-30T06:15:59;33.65;;;21.60;;
50495;SDS011;38806;51.554;5.704;2022-09-30T06:18:00;38.95;;;24.25;;
50495;SDS011;38806;51.554;5.704;2022-09-30T06:20:01;34.97;;;22.77;;
50495;SDS011;38806;51.554;5.704;2022-09-30T06:22:03;37.67;;;24.92;;
50495;SDS011;38806;51.554;5.704;2022-09-30T06:24:04;34.60;;;22.02;;
50495;SDS011;38806;51.554;5.704;2022-09-30T06:26:05;36.47;;;22.83;;
50495;SDS011;38806;51.554;5.704;2022-09-30T06:28:07;35.55;;;21.17;;
50495;SDS011;38806;51.554;5.704;2022-09-30T06:30:07;37.47;;;21.98;;
50495;SDS011;38806;51.554;5.704;2022-09-30T06:32:08;29.13;;;22.23;;
50495;SDS011;38806;51.554;5.704;2022-09-30T06:34:08;30.45;;;23.02;;
50495;SDS011;38806;51.554;5.704;2022-09-30T06:36:09;40.60;;;23.60;;
50495;SDS011;38806;51.554;5.704;2022-09-30T06:38:09;35.60;;;23.30;;
50495;SDS011;38806;51.554;5.704;2022-09-30T06:40:10;35.88;;;23.92;;
50495;SDS011;38806;51.554;5.704;2022-09-30T06:42:10;37.45;;;28.55;;
50495;SDS011;38806;51.554;5.704;2022-09-30T06:44:11;39.65;;;27.70;;
50495;SDS011;38806;51.554;5.704;2022-09-30T06:46:11;45.17;;;28.77;;
50495;SDS011;38806;51.554;5.704;2022-09-30T06:48:12;51.83;;;32.30;;
50495;SDS011;38806;51.554;5.704;2022-09-30T06:50:12;42.05;;;27.23;;
50495;SDS011;38806;51.554;5.704;2022-09-30T06:52:13;40.58;;;27.30;;
50495;SDS011;38806;51.554;5.704;2022-09-30T06:54:13;45.25;;;30.48;;
50495;SDS011;38806;51.554;5.704;2022-09-30T06:56:13;40.75;;;28.98;;
50495;SDS011;38806;51.554;5.704;2022-09-30T06:58:14;52.60;;;30.33;;
50495;SDS011;38806;51.554;5.704;2022-09-30T07:00:15;48.58;;;33.08;;
50495;SDS011;38806;51.554;5.704;2022-09-30T07:02:16;54.67;;;37.20;;
50495;SDS011;38806;51.554;5.704;2022-09-30T07:04:17;52.88;;;33.03;;
50495;SDS011;38806;51.554;5.704;2022-09-30T07:06:18;57.35;;;37.80;;
50495;SDS011;38806;51.554;5.704;2022-09-30T07:08:18;56.28;;;36.33;;
50495;SDS011;38806;51.554;5.704;2022-09-30T07:10:19;63.35;;;41.33;;
50495;SDS011;38806;51.554;5.704;2022-09-30T07:12:19;60.17;;;39.88;;
50495;SDS011;38806;51.554;5.704;2022-09-30T07:14:19;63.65;;;40.33;;
50495;SDS011;38806;51.554;5.704;2022-09-30T07:16:22;70.32;;;43.95;;
50495;SDS011;38806;51.554;5.704;2022-09-30T07:18:24;68.25;;;42.25;;
50495;SDS011;38806;51.554;5.704;2022-09-30T07:20:26;78.85;;;47.53;;
50495;SDS011;38806;51.554;5.704;2022-09-30T07:22:26;69.47;;;43.67;;
50495;SDS011;38806;51.554;5.704;2022-09-30T07:24:28;73.45;;;49.45;;
50495;SDS011;38806;51.554;5.704;2022-09-30T07:26:29;88.30;;;51.97;;
50495;SDS011;38806;51.554;5.704;2022-09-30T07:28:33;80.70;;;51.20;;
50495;SDS011;38806;51.554;5.704;2022-09-30T07:30:35;91.28;;;55.28;;
50495;SDS011;38806;51.554;5.704;2022-09-30T07:32:35;85.07;;;54.85;;
50495;SDS011;38806;51.554;5.704;2022-09-30T07:34:36;89.95;;;53.13;;
50495;SDS011;38806;51.554;5.704;2022-09-30T07:36:37;95.32;;;57.53;;
50495;SDS011;38806;51.554;5.704;2022-09-30T07:38:39;91.63;;;56.13;;
50495;SDS011;38806;51.554;5.704;2022-09-30T07:40:40;91.50;;;56.13;;
50495;SDS011;38806;51.554;5.704;2022-09-30T07:42:41;97.72;;;59.17;;
50495;SDS011;38806;51.554;5.704;2022-09-30T07:44:44;92.13;;;58.55;;
50495;SDS011;38806;51.554;5.704;2022-09-30T07:46:45;89.68;;;58.17;;
50495;SDS011;38806;51.554;5.704;2022-09-30T07:48:46;97.20;;;59.45;;
50495;SDS011;38806;51.554;5.704;2022-09-30T07:50:52;102.60;;;60.33;;
50495;SDS011;38806;51.554;5.704;2022-09-30T07:52:53;99.70;;;60.30;;
50495;SDS011;38806;51.554;5.704;2022-09-30T07:54:54;95.00;;;60.78;;
50495;SDS011;38806;51.554;5.704;2022-09-30T07:56:55;89.72;;;57.55;;
50495;SDS011;38806;51.554;5.704;2022-09-30T07:58:58;86.63;;;55.53;;
50495;SDS011;38806;51.554;5.704;2022-09-30T08:00:59;95.93;;;58.30;;
50495;SDS011;38806;51.554;5.704;2022-09-30T08:03:00;91.30;;;60.17;;
50495;SDS011;38806;51.554;5.704;2022-09-30T08:05:00;89.30;;;57.13;;
50495;SDS011;38806;51.554;5.704;2022-09-30T08:07:00;88.60;;;60.47;;
50495;SDS011;38806;51.554;5.704;2022-09-30T08:09:01;87.82;;;60.30;;
50495;SDS011;38806;51.554;5.704;2022-09-30T08:11:03;88.72;;;56.95;;
50495;SDS011;38806;51.554;5.704;2022-09-30T08:13:04;84.95;;;54.22;;
50495;SDS011;38806;51.554;5.704;2022-09-30T08:15:05;83.97;;;54.60;;
50495;SDS011;38806;51.554;5.704;2022-09-30T08:17:08;77.72;;;52.95;;
50495;SDS011;38806;51.554;5.704;2022-09-30T08:19:11;73.68;;;50.05;;
50495;SDS011;38806;51.554;5.704;2022-09-30T08:21:15;62.33;;;45.00;;
50495;SDS011;38806;51.554;5.704;2022-09-30T08:23:15;52.28;;;38.72;;
50495;SDS011;38806;51.554;5.704;2022-09-30T08:25:15;45.20;;;34.15;;
50495;SDS011;38806;51.554;5.704;2022-09-30T08:27:16;44.70;;;34.38;;
50495;SDS011;38806;51.554;5.704;2022-09-30T08:29:16;45.38;;;32.05;;
50495;SDS011;38806;51.554;5.704;2022-09-30T08:31:18;43.95;;;32.70;;
50495;SDS011;38806;51.554;5.704;2022-09-30T08:33:20;43.88;;;30.33;;
50495;SDS011;38806;51.554;5.704;2022-09-30T08:35:20;35.78;;;28.10;;
50495;SDS011;38806;51.554;5.704;2022-09-30T08:37:20;38.95;;;29.98;;
50495;SDS011;38806;51.554;5.704;2022-09-30T08:39:21;37.40;;;28.05;;
50495;SDS011;38806;51.554;5.704;2022-09-30T08:43:45;32.92;;;25.33;;
50495;SDS011;38806;51.554;5.704;2022-09-30T08:46:10;31.23;;;27.23;;
50495;SDS011;38806;51.554;5.704;2022-09-30T08:50:49;33.70;;;26.15;;
50495;SDS011;38806;51.554;5.704;2022-09-30T08:53:00;27.67;;;23.52;;
50495;SDS011;38806;51.554;5.704;2022-09-30T08:55:05;32.30;;;23.73;;
50495;SDS011;38806;51.554;5.704;2022-09-30T08:57:08;28.90;;;21.33;;
50495;SDS011;38806;51.554;5.704;2022-09-30T09:01:26;29.27;;;21.50;;
50495;SDS011;38806;51.554;5.704;2022-09-30T09:03:31;27.55;;;23.05;;
50495;SDS011;38806;51.554;5.704;2022-09-30T09:05:43;27.63;;;20.58;;
50495;SDS011;38806;51.554;5.704;2022-09-30T09:07:58;27.42;;;20.55;;
50495;SDS011;38806;51.554;5.704;2022-09-30T09:10:41;20.73;;;18.38;;
50495;SDS011;38806;51.554;5.704;2022-09-30T09:18:02;25.33;;;20.33;;
50495;SDS011;38806;51.554;5.704;2022-09-30T09:20:18;19.67;;;16.75;;
50495;SDS011;38806;51.554;5.704;2022-09-30T09:22:21;23.58;;;18.80;;
50495;SDS011;38806;51.554;5.704;2022-09-30T09:24:25;23.05;;;18.00;;
50495;SDS011;38806;51.554;5.704;2022-09-30T09:26:48;22.55;;;16.50;;
50495;SDS011;38806;51.554;5.704;2022-09-30T09:31:01;22.25;;;18.65;;
50495;SDS011;38806;51.554;5.704;2022-09-30T09:33:09;26.17;;;22.25;;
50495;SDS011;38806;51.554;5.704;2022-09-30T09:35:30;23.30;;;20.10;;
50495;SDS011;38806;51.554;5.704;2022-09-30T09:40:23;25.80;;;19.33;;
50495;SDS011;38806;51.554;5.704;2022-09-30T09:42:37;22.98;;;20.02;;
50495;SDS011;38806;51.554;5.704;2022-09-30T09:47:04;22.73;;;18.35;;
50495;SDS011;38806;51.554;5.704;2022-09-30T09:51:27;22.50;;;18.83;;
50495;SDS011;38806;51.554;5.704;2022-09-30T09:53:35;21.27;;;17.95;;
50495;SDS011;38806;51.554;5.704;2022-09-30T09:55:41;25.10;;;20.23;;
50495;SDS011;38806;51.554;5.704;2022-09-30T09:57:41;22.70;;;17.02;;
50495;SDS011;38806;51.554;5.704;2022-09-30T10:02:37;21.98;;;18.08;;
50495;SDS011;38806;51.554;5.704;2022-09-30T10:04:38;23.98;;;20.17;;
50495;SDS011;38806;51.554;5.704;2022-09-30T10:08:54;22.35;;;17.73;;
50495;SDS011;38806;51.554;5.704;2022-09-30T10:10:57;24.42;;;17.42;;
50495;SDS011;38806;51.554;5.704;2022-09-30T10:12:59;22.23;;;17.17;;
50495;SDS011;38806;51.554;5.704;2022-09-30T10:15:00;24.90;;;18.10;;
50495;SDS011;38806;51.554;5.704;2022-09-30T10:17:04;22.45;;;17.35;;
50495;SDS011;38806;51.554;5.704;2022-09-30T10:19:21;23.15;;;18.88;;
50495;SDS011;38806;51.554;5.704;2022-09-30T10:21:26;20.58;;;17.25;;
50495;SDS011;38806;51.554;5.704;2022-09-30T10:23:29;21.27;;;17.83;;
50495;SDS011;38806;51.554;5.704;2022-09-30T10:25:37;20.05;;;16.92;;
50495;SDS011;38806;51.554;5.704;2022-09-30T10:27:39;20.45;;;15.27;;
50495;SDS011;38806;51.554;5.704;2022-09-30T10:29:56;19.92;;;16.48;;
50495;SDS011;38806;51.554;5.704;2022-09-30T10:32:00;22.33;;;17.70;;
50495;SDS011;38806;51.554;5.704;2022-09-30T10:36:22;19.70;;;15.90;;
50495;SDS011;38806;51.554;5.704;2022-09-30T10:38:31;16.80;;;13.50;;
50495;SDS011;38806;51.554;5.704;2022-09-30T10:40:33;15.18;;;12.32;;
50495;SDS011;38806;51.554;5.704;2022-09-30T10:42:35;17.83;;;14.70;;
50495;SDS011;38806;51.554;5.704;2022-09-30T10:44:46;16.08;;;14.38;;
50495;SDS011;38806;51.554;5.704;2022-09-30T10:46:51;14.73;;;11.73;;
50495;SDS011;38806;51.554;5.704;2022-09-30T10:48:57;14.32;;;11.40;;
50495;SDS011;38806;51.554;5.704;2022-09-30T10:50:58;13.30;;;9.23;;
50495;SDS011;38806;51.554;5.704;2022-09-30T10:53:10;12.20;;;10.63;;
50495;SDS011;38806;51.554;5.704;2022-09-30T10:55:40;13.25;;;9.93;;
50495;SDS011;38806;51.554;5.704;2022-09-30T10:57:42;11.98;;;7.57;;
50495;SDS011;38806;51.554;5.704;2022-09-30T10:59:43;11.90;;;7.80;;
50495;SDS011;38806;51.554;5.704;2022-09-30T11:01:52;9.32;;;7.07;;
50495;SDS011;38806;51.554;5.704;2022-09-30T11:04:01;8.35;;;6.32;;
50495;SDS011;38806;51.554;5.704;2022-09-30T11:06:08;9.18;;;6.30;;
50495;SDS011;38806;51.554;5.704;2022-09-30T11:10:55;8.75;;;5.40;;
50495;SDS011;38806;51.554;5.704;2022-09-30T11:13:22;7.20;;;5.00;;
50495;SDS011;38806;51.554;5.704;2022-09-30T11:15:51;6.63;;;4.68;;
50495;SDS011;38806;51.554;5.704;2022-09-30T11:18:42;6.85;;;5.00;;
50495;SDS011;38806;51.554;5.704;2022-09-30T11:20:29;7.20;;;4.55;;
50495;SDS011;38806;51.554;5.704;2022-09-30T11:24:58;5.82;;;4.95;;
50495;SDS011;38806;51.554;5.704;2022-09-30T11:29:05;7.93;;;4.57;;
50495;SDS011;38806;51.554;5.704;2022-09-30T11:31:30;6.43;;;3.83;;
50495;SDS011;38806;51.554;5.704;2022-09-30T11:45:30;5.63;;;2.70;;
50495;SDS011;38806;51.554;5.704;2022-09-30T11:52:21;3.38;;;1.73;;
50495;SDS011;38806;51.554;5.704;2022-09-30T11:54:28;4.15;;;2.20;;
50495;SDS011;38806;51.554;5.704;2022-09-30T11:59:06;3.72;;;1.95;;
50495;SDS011;38806;51.554;5.704;2022-09-30T12:03:42;3.08;;;1.60;;
50495;SDS011;38806;51.554;5.704;2022-09-30T12:05:47;3.10;;;1.63;;
50495;SDS011;38806;51.554;5.704;2022-09-30T12:08:02;2.35;;;1.23;;
50495;SDS011;38806;51.554;5.704;2022-09-30T12:10:27;4.80;;;1.65;;
50495;SDS011;38806;51.554;5.704;2022-09-30T12:12:30;4.80;;;1.20;;
50495;SDS011;38806;51.554;5.704;2022-09-30T12:14:33;3.15;;;1.27;;
50495;SDS011;38806;51.554;5.704;2022-09-30T12:16:44;3.05;;;0.88;;
50495;SDS011;38806;51.554;5.704;2022-09-30T12:18:47;3.83;;;0.90;;
50495;SDS011;38806;51.554;5.704;2022-09-30T12:20:59;2.33;;;1.20;;
50495;SDS011;38806;51.554;5.704;2022-09-30T12:23:12;3.00;;;2.00;;
50495;SDS011;38806;51.554;5.704;2022-09-30T12:25:20;3.75;;;1.00;;
50495;SDS011;38806;51.554;5.704;2022-09-30T12:27:26;1.65;;;0.85;;
50495;SDS011;38806;51.554;5.704;2022-09-30T12:29:40;1.50;;;1.13;;
50495;SDS011;38806;51.554;5.704;2022-09-30T12:48:03;2.85;;;0.95;;
50495;SDS011;38806;51.554;5.704;2022-09-30T12:50:07;1.80;;;0.82;;
50495;SDS011;38806;51.554;5.704;2022-09-30T12:52:16;2.10;;;0.93;;
50495;SDS011;38806;51.554;5.704;2022-09-30T12:56:28;2.75;;;1.17;;
50495;SDS011;38806;51.554;5.704;2022-09-30T12:58:42;2.47;;;1.00;;
50495;SDS011;38806;51.554;5.704;2022-09-30T13:00:59;2.67;;;0.82;;
50495;SDS011;38806;51.554;5.704;2022-09-30T13:03:15;3.95;;;0.98;;
50495;SDS011;38806;51.554;5.704;2022-09-30T13:07:29;4.18;;;1.40;;
50495;SDS011;38806;51.554;5.704;2022-09-30T13:14:11;2.22;;;1.08;;
50495;SDS011;38806;51.554;5.704;2022-09-30T13:16:15;2.90;;;1.48;;
50495;SDS011;38806;51.554;5.704;2022-09-30T13:18:57;2.72;;;0.90;;
50495;SDS011;38806;51.554;5.704;2022-09-30T13:23:04;3.35;;;1.52;;
50495;SDS011;38806;51.554;5.704;2022-09-30T13:25:11;4.22;;;1.25;;
50495;SDS011;38806;51.554;5.704;2022-09-30T13:27:13;3.30;;;1.40;;
50495;SDS011;38806;51.554;5.704;2022-09-30T13:31:19;2.10;;;1.27;;
50495;SDS011;38806;51.554;5.704;2022-09-30T13:33:27;2.53;;;0.82;;
50495;SDS011;38806;51.554;5.704;2022-09-30T13:37:35;2.08;;;0.90;;
50495;SDS011;38806;51.554;5.704;2022-09-30T13:39:44;2.60;;;0.88;;
50495;SDS011;38806;51.554;5.704;2022-09-30T13:44:21;5.53;;;1.48;;
50495;SDS011;38806;51.554;5.704;2022-09-30T13:46:29;2.78;;;1.02;;
50495;SDS011;38806;51.554;5.704;2022-09-30T13:48:35;5.60;;;1.05;;
50495;SDS011;38806;51.554;5.704;2022-09-30T13:50:53;2.30;;;0.85;;
50495;SDS011;38806;51.554;5.704;2022-09-30T13:55:02;3.20;;;0.82;;
50495;SDS011;38806;51.554;5.704;2022-09-30T13:57:09;3.78;;;0.93;;
50495;SDS011;38806;51.554;5.704;2022-09-30T13:59:30;2.92;;;1.00;;
50495;SDS011;38806;51.554;5.704;2022-09-30T14:01:46;3.58;;;1.02;;
50495;SDS011;38806;51.554;5.704;2022-09-30T14:09:04;2.72;;;1.00;;
50495;SDS011;38806;51.554;5.704;2022-09-30T14:22:52;1.63;;;1.08;;
50495;SDS011;38806;51.554;5.704;2022-09-30T14:24:52;3.08;;;0.90;;
50495;SDS011;38806;51.554;5.704;2022-09-30T14:29:27;3.70;;;0.90;;
50495;SDS011;38806;51.554;5.704;2022-09-30T14:31:27;2.33;;;1.15;;
50495;SDS011;38806;51.554;5.704;2022-09-30T14:33:28;3.05;;;1.27;;
50495;SDS011;38806;51.554;5.704;2022-09-30T14:35:31;4.78;;;1.20;;
50495;SDS011;38806;51.554;5.704;2022-09-30T14:37:38;3.30;;;1.27;;
50495;SDS011;38806;51.554;5.704;2022-09-30T14:39:43;2.40;;;0.98;;
50495;SDS011;38806;51.554;5.704;2022-09-30T14:41:47;2.70;;;1.15;;
50495;SDS011;38806;51.554;5.704;2022-09-30T14:43:52;5.93;;;1.60;;
50495;SDS011;38806;51.554;5.704;2022-09-30T14:45:56;1.85;;;0.95;;
50495;SDS011;38806;51.554;5.704;2022-09-30T14:48:00;2.92;;;0.80;;
50495;SDS011;38806;51.554;5.704;2022-09-30T14:50:08;3.00;;;1.08;;
50495;SDS011;38806;51.554;5.704;2022-09-30T14:52:32;3.80;;;0.95;;
50495;SDS011;38806;51.554;5.704;2022-09-30T14:54:35;2.65;;;1.17;;